Time;durP1;ratioP1;P1;durP2;ratioP2;P2;SDS_P1;SDS_P2;PMS_P1;PMS_P2;Temp;Humidity;BMP_temperature;BMP_pressure;BME280_temperature;BME280_humidity;BME280_pressure;Samples;Min_cycle;Max_cycle;Signal;HPM_P1;HPM_P2
2022/05/18 00:01:39;;;;;;;2.00;1.15;;;15.50;99.90;;;;;;5068788;28;20388;-63
2022/05/18 00:04:05;;;;;;;3.53;1.27;;;15.50;99.90;;;;;;5068759;28;20037;-63
2022/05/18 00:06:31;;;;;;;5.10;1.25;;;15.50;99.90;;;;;;5070657;28;20112;-63
2022/05/18 00:08:57;;;;;;;2.97;1.20;;;15.40;99.90;;;;;;5071647;28;20480;-63
2022/05/18 00:11:22;;;;;;;3.00;1.08;;;15.30;99.90;;;;;;5071279;28;20469;-63
2022/05/18 00:13:50;;;;;;;2.35;0.98;;;15.30;99.90;;;;;;5071536;28;20103;-62
2022/05/18 00:16:17;;;;;;;1.35;0.93;;;15.30;99.90;;;;;;5071514;28;20469;-63
2022/05/18 00:18:43;;;;;;;2.97;1.00;;;15.20;99.90;;;;;;5071403;28;20036;-63
2022/05/18 00:21:09;;;;;;;5.00;1.50;;;15.20;99.90;;;;;;5068236;28;20025;-63
2022/05/18 00:23:34;;;;;;;2.03;0.90;;;15.10;99.90;;;;;;5070196;28;20469;-63
2022/05/18 00:26:01;;;;;;;1.98;0.68;;;15.10;99.90;;;;;;5067784;28;20043;-63
2022/05/18 00:28:26;;;;;;;2.55;0.80;;;15.10;99.90;;;;;;5068723;28;20021;-63
2022/05/18 00:30:52;;;;;;;2.58;0.93;;;15.10;99.90;;;;;;5070539;28;20040;-63
2022/05/18 00:33:18;;;;;;;0.60;0.60;;;15.00;99.90;;;;;;5071076;28;20032;-63
2022/05/18 00:35:44;;;;;;;1.15;0.60;;;15.00;99.90;;;;;;5070927;28;20028;-63
2022/05/18 00:38:10;;;;;;;0.98;0.57;;;14.90;99.90;;;;;;5071030;28;20028;-63
2022/05/18 00:40:40;;;;;;;2.78;0.77;;;14.90;99.90;;;;;;5071067;28;20119;-63
2022/05/18 00:43:14;;;;;;;3.03;0.98;;;14.90;99.90;;;;;;5070727;28;20056;-63
2022/05/18 00:45:39;;;;;;;1.25;0.50;;;14.90;99.90;;;;;;5070823;28;20520;-63
2022/05/18 00:48:05;;;;;;;1.55;0.82;;;14.90;99.90;;;;;;5070710;28;20492;-63
2022/05/18 00:50:34;;;;;;;1.83;0.63;;;14.80;99.90;;;;;;5070558;28;20040;-63
2022/05/18 00:53:10;;;;;;;1.42;0.60;;;14.80;99.90;;;;;;5070431;28;20072;-63
2022/05/18 00:55:41;;;;;;;1.45;0.50;;;14.80;99.90;;;;;;5068839;28;20032;-64
2022/05/18 00:58:13;;;;;;;1.67;0.73;;;14.70;99.90;;;;;;5069967;28;20025;-63
2022/05/18 01:00:41;;;;;;;1.02;0.82;;;14.70;99.90;;;;;;5070508;28;20598;-63
2022/05/18 01:03:14;;;;;;;2.15;0.88;;;14.60;99.90;;;;;;5067661;28;20101;-63
2022/05/18 01:05:43;;;;;;;1.90;0.60;;;14.60;99.90;;;;;;5067215;28;20089;-63
2022/05/18 01:08:14;;;;;;;0.73;0.40;;;14.50;99.90;;;;;;5069684;28;20044;-63
2022/05/18 01:10:39;;;;;;;2.53;0.60;;;14.50;99.90;;;;;;5070253;28;20067;-63
2022/05/18 01:13:05;;;;;;;1.08;0.63;;;14.50;99.90;;;;;;5070469;28;20122;-63
2022/05/18 01:15:32;;;;;;;6.00;0.82;;;14.40;99.90;;;;;;5070290;28;20078;-63
2022/05/18 01:17:59;;;;;;;1.88;0.30;;;14.30;99.90;;;;;;5052293;28;20427;-63
2022/05/18 01:20:35;;;;;;;1.55;0.47;;;14.30;99.90;;;;;;5070377;28;20032;-63
2022/05/18 01:23:27;;;;;;;0.38;0.30;;;14.20;99.90;;;;;;5070482;28;20027;-63
2022/05/18 01:26:21;;;;;;;0.95;0.50;;;14.20;99.90;;;;;;5070144;28;20058;-63
2022/05/18 01:28:56;;;;;;;1.15;0.40;;;14.10;99.90;;;;;;5070121;28;20435;-63
2022/05/18 01:32:06;;;;;;;2.88;0.30;;;14.10;99.90;;;;;;5070327;28;20033;-63
2022/05/18 01:34:35;;;;;;;0.22;0.22;;;14.00;99.90;;;;;;5066775;28;20036;-62
2022/05/18 01:37:02;;;;;;;0.98;0.47;;;14.00;99.90;;;;;;5070324;28;20032;-63
2022/05/18 01:39:38;;;;;;;3.20;0.30;;;13.90;99.90;;;;;;5070058;28;20385;-63
2022/05/18 01:42:07;;;;;;;2.25;0.40;;;13.90;99.90;;;;;;5069887;28;20431;-63
2022/05/18 01:44:38;;;;;;;2.53;0.30;;;13.80;99.90;;;;;;5069926;28;20107;-63
2022/05/18 01:47:04;;;;;;;0.70;0.40;;;13.80;99.90;;;;;;5053717;28;20078;-63
2022/05/18 01:49:32;;;;;;;2.05;0.45;;;13.70;99.90;;;;;;5047288;28;20025;-63
2022/05/18 01:51:58;;;;;;;1.10;0.20;;;13.70;99.90;;;;;;5046748;28;20045;-63
2022/05/18 01:54:24;;;;;;;0.60;0.57;;;13.70;99.90;;;;;;5046836;28;20048;-63
2022/05/18 01:56:49;;;;;;;0.88;0.35;;;13.70;99.90;;;;;;5046584;28;20393;-63
2022/05/18 01:59:15;;;;;;;0.95;0.30;;;13.70;99.90;;;;;;5046816;28;20021;-62
2022/05/18 02:01:41;;;;;;;2.20;0.85;;;13.70;99.90;;;;;;5046344;28;20029;-63
2022/05/18 02:04:07;;;;;;;0.40;0.30;;;13.60;99.90;;;;;;5047543;28;20100;-63
2022/05/18 02:06:34;;;;;;;1.40;0.32;;;13.60;99.90;;;;;;5049755;28;20029;-63
2022/05/18 02:09:01;;;;;;;0.50;0.40;;;13.60;99.90;;;;;;5050293;28;20025;-63
2022/05/18 02:11:27;;;;;;;0.75;0.25;;;13.60;99.90;;;;;;5056761;28;20535;-63
2022/05/18 02:13:53;;;;;;;0.50;0.30;;;13.50;99.90;;;;;;5070071;28;20020;-63
2022/05/18 02:16:20;;;;;;;1.10;0.25;;;13.50;99.90;;;;;;5073782;28;20409;-63
2022/05/18 02:18:45;;;;;;;0.52;0.30;;;13.40;99.90;;;;;;5074017;28;20086;-63
2022/05/18 02:21:12;;;;;;;0.88;0.50;;;13.30;99.90;;;;;;5073605;28;20028;-63
2022/05/18 02:23:39;;;;;;;0.82;0.30;;;13.30;99.90;;;;;;5073674;28;20025;-63
2022/05/18 02:26:07;;;;;;;0.85;0.40;;;13.30;99.90;;;;;;5073307;28;20397;-63
2022/05/18 02:28:33;;;;;;;0.85;0.30;;;13.20;99.90;;;;;;5071555;28;20043;-63
2022/05/18 02:30:59;;;;;;;4.30;1.05;;;13.20;99.90;;;;;;5072150;28;20028;-63
2022/05/18 02:33:24;;;;;;;0.55;0.40;;;13.20;99.90;;;;;;5072453;28;20020;-63
2022/05/18 02:35:50;;;;;;;4.53;0.60;;;13.10;99.90;;;;;;5072493;28;20037;-63
2022/05/18 02:38:15;;;;;;;0.70;0.40;;;13.10;99.90;;;;;;5073334;28;20099;-63
2022/05/18 02:40:41;;;;;;;1.05;0.43;;;13.10;99.90;;;;;;5073134;28;20025;-63
2022/05/18 02:43:07;;;;;;;0.95;0.47;;;13.10;99.90;;;;;;5072953;28;20021;-63
2022/05/18 02:45:33;;;;;;;2.50;0.68;;;13.00;99.90;;;;;;5073070;28;20044;-62
2022/05/18 02:47:58;;;;;;;4.32;0.82;;;13.00;99.90;;;;;;5073170;28;20024;-62
2022/05/18 02:50:24;;;;;;;1.85;0.82;;;13.00;99.90;;;;;;5072937;28;20113;-63
2022/05/18 02:52:49;;;;;;;2.40;0.98;;;13.00;99.90;;;;;;5073042;28;20413;-63
2022/05/18 02:57:59;;;;;;;3.15;0.50;;;12.90;99.90;;;;;;5070327;28;20070;-63
2022/05/18 03:00:25;;;;;;;0.70;0.40;;;12.90;99.90;;;;;;5070109;28;20111;-63
2022/05/18 03:02:51;;;;;;;4.10;0.88;;;12.80;99.90;;;;;;5069839;28;20040;-63
2022/05/18 03:05:16;;;;;;;2.08;0.40;;;12.80;99.90;;;;;;5068543;28;20029;-63
2022/05/18 03:07:43;;;;;;;2.58;0.47;;;12.70;99.90;;;;;;5069247;28;20031;-63
2022/05/18 03:10:09;;;;;;;0.47;0.30;;;12.60;99.90;;;;;;5072897;28;20035;-63
2022/05/18 03:12:35;;;;;;;0.30;0.30;;;12.50;99.90;;;;;;5072592;28;20021;-63
2022/05/18 03:15:01;;;;;;;0.98;0.50;;;12.50;99.90;;;;;;5072635;28;20119;-63
2022/05/18 03:17:26;;;;;;;1.13;0.73;;;12.50;99.90;;;;;;5072611;28;20138;-63
2022/05/18 03:19:52;;;;;;;2.47;0.80;;;12.50;99.90;;;;;;5072390;28;20032;-63
2022/05/18 03:25:02;;;;;;;0.60;0.52;;;12.40;99.90;;;;;;5072567;28;20401;-63
2022/05/18 03:27:28;;;;;;;1.85;0.55;;;12.40;99.90;;;;;;5072251;28;20036;-63
2022/05/18 03:29:54;;;;;;;0.77;0.40;;;12.40;99.90;;;;;;5072525;28;20100;-63
2022/05/18 03:32:22;;;;;;;1.98;0.55;;;12.30;99.90;;;;;;5072369;28;20162;-63
2022/05/18 03:34:49;;;;;;;1.55;0.47;;;12.30;99.90;;;;;;5072157;28;20036;-63
2022/05/18 03:37:16;;;;;;;1.77;0.68;;;12.30;99.90;;;;;;5072212;28;20029;-63
2022/05/18 03:39:42;;;;;;;0.85;0.55;;;12.30;99.90;;;;;;5072161;28;20024;-63
2022/05/18 03:42:08;;;;;;;2.67;0.70;;;12.30;99.90;;;;;;5071945;28;20036;-63
2022/05/18 03:44:34;;;;;;;1.65;0.82;;;12.20;99.90;;;;;;5072326;28;20147;-63
2022/05/18 03:47:00;;;;;;;1.17;0.50;;;12.20;99.90;;;;;;5072392;28;20390;-63
2022/05/18 03:49:25;;;;;;;1.20;0.43;;;12.10;99.90;;;;;;5072157;28;20627;-63
2022/05/18 03:51:51;;;;;;;2.42;0.75;;;12.10;99.90;;;;;;5071693;28;20402;-63
2022/05/18 03:54:17;;;;;;;1.65;0.47;;;12.10;99.90;;;;;;5072396;28;20082;-63
2022/05/18 03:56:43;;;;;;;0.50;0.40;;;12.10;99.90;;;;;;5071840;28;20024;-63
2022/05/18 03:59:08;;;;;;;1.58;0.93;;;12.10;99.90;;;;;;5071803;28;20050;-62
2022/05/18 04:01:34;;;;;;;4.78;1.17;;;12.00;99.90;;;;;;5071820;28;20099;-63
2022/05/18 04:04:00;;;;;;;1.95;0.40;;;11.90;99.90;;;;;;5071899;28;20119;-63
2022/05/18 04:06:25;;;;;;;5.15;0.70;;;11.80;99.90;;;;;;5071633;28;20028;-63
2022/05/18 04:08:52;;;;;;;4.80;0.90;;;11.80;99.90;;;;;;5071713;28;20488;-63
2022/05/18 04:11:18;;;;;;;3.08;1.40;;;11.80;99.90;;;;;;5071354;28;20028;-63
2022/05/18 04:13:44;;;;;;;1.52;0.80;;;11.90;99.90;;;;;;5071644;28;20024;-63
2022/05/18 04:16:09;;;;;;;2.33;1.02;;;11.90;99.90;;;;;;5070227;28;20028;-62
2022/05/18 04:18:35;;;;;;;3.65;1.30;;;11.90;99.90;;;;;;5067867;28;20032;-62
2022/05/18 04:21:02;;;;;;;5.43;1.10;;;11.90;99.90;;;;;;5065995;28;20029;-63
2022/05/18 04:23:28;;;;;;;3.35;1.05;;;11.90;99.90;;;;;;5071146;28;20039;-63
2022/05/18 04:25:54;;;;;;;2.88;1.17;;;11.90;99.90;;;;;;5071520;28;20029;-62
2022/05/18 04:28:20;;;;;;;4.45;1.15;;;11.90;99.90;;;;;;5071434;28;20031;-62
2022/05/18 04:30:47;;;;;;;5.40;1.73;;;12.00;99.90;;;;;;5070309;28;20032;-62
2022/05/18 04:33:24;;;;;;;3.17;1.30;;;12.00;99.90;;;;;;5067919;28;20107;-62
2022/05/18 04:35:50;;;;;;;4.90;1.23;;;12.00;99.90;;;;;;5067434;28;20123;-63
2022/05/18 04:38:18;;;;;;;7.22;1.30;;;12.00;99.90;;;;;;5069147;28;20108;-62
2022/05/18 04:40:44;;;;;;;8.77;1.67;;;12.10;99.90;;;;;;5070915;28;20089;-62
2022/05/18 04:43:09;;;;;;;5.88;1.15;;;12.10;99.90;;;;;;5070771;28;20393;-62
2022/05/18 04:45:36;;;;;;;3.67;1.85;;;12.10;99.90;;;;;;5070998;28;20028;-62
2022/05/18 04:48:02;;;;;;;5.22;1.90;;;12.10;99.90;;;;;;5070889;28;20622;-62
2022/05/18 04:50:28;;;;;;;3.30;1.90;;;12.20;99.90;;;;;;5070471;28;20114;-62
2022/05/18 04:52:54;;;;;;;5.57;2.33;;;12.20;99.90;;;;;;5070517;28;20052;-63
2022/05/18 04:55:19;;;;;;;6.63;3.00;;;12.30;99.90;;;;;;5070722;28;20396;-62
2022/05/18 04:57:45;;;;;;;3.60;2.58;;;12.30;99.90;;;;;;5070640;28;20109;-63
2022/05/18 05:00:13;;;;;;;7.05;3.33;;;12.40;99.90;;;;;;5070636;28;20024;-62
2022/05/18 05:02:39;;;;;;;4.05;2.42;;;12.50;99.90;;;;;;5067365;28;20742;-63
2022/05/18 05:05:07;;;;;;;4.50;1.90;;;12.50;99.90;;;;;;5064182;28;20396;-62
2022/05/18 05:07:33;;;;;;;7.05;2.33;;;12.50;99.90;;;;;;5048936;28;20769;-63
2022/05/18 05:09:59;;;;;;;5.15;2.17;;;12.50;99.90;;;;;;5050332;28;20508;-62
2022/05/18 05:12:26;;;;;;;3.85;2.13;;;12.50;99.90;;;;;;5065232;28;20029;-63
2022/05/18 05:14:52;;;;;;;5.40;2.15;;;12.50;99.90;;;;;;5070252;28;20112;-63
2022/05/18 05:17:18;;;;;;;4.30;2.20;;;12.50;99.90;;;;;;5070471;28;20060;-62
2022/05/18 05:19:43;;;;;;;7.15;2.30;;;12.50;99.90;;;;;;5070026;28;20067;-63
2022/05/18 05:22:09;;;;;;;6.38;2.00;;;12.50;99.90;;;;;;5068904;28;20043;-63
2022/05/18 05:24:35;;;;;;;4.60;1.60;;;12.50;99.90;;;;;;5067080;28;20027;-63
2022/05/18 05:27:01;;;;;;;3.05;1.45;;;12.60;99.90;;;;;;5067727;28;20531;-63
2022/05/18 05:29:26;;;;;;;5.65;2.25;;;12.70;99.90;;;;;;5070097;28;20048;-63
2022/05/18 05:31:52;;;;;;;7.20;2.33;;;12.80;99.90;;;;;;5070091;28;20033;-63
2022/05/18 05:34:18;;;;;;;7.38;2.03;;;12.90;99.90;;;;;;5069895;28;20024;-63
2022/05/18 05:36:43;;;;;;;5.00;2.35;;;12.90;99.90;;;;;;5070140;28;20115;-63
2022/05/18 05:39:09;;;;;;;5.45;2.50;;;12.90;99.90;;;;;;5070012;28;20021;-63
2022/05/18 05:41:35;;;;;;;4.88;3.10;;;13.00;99.90;;;;;;5069733;28;20031;-63
2022/05/18 05:44:00;;;;;;;7.53;2.35;;;13.10;99.90;;;;;;5069809;28;20556;-63
2022/05/18 05:46:27;;;;;;;4.88;2.58;;;13.20;99.90;;;;;;5068673;28;20086;-63
2022/05/18 05:48:54;;;;;;;5.45;2.05;;;13.30;99.90;;;;;;5065884;28;20021;-64
2022/05/18 05:51:23;;;;;;;4.13;2.45;;;13.50;99.90;;;;;;5067372;28;20451;-63
2022/05/18 05:53:50;;;;;;;4.53;2.70;;;13.60;99.90;;;;;;5069789;28;20017;-63
2022/05/18 05:56:16;;;;;;;7.20;2.60;;;13.60;99.90;;;;;;5069486;28;20056;-63
2022/05/18 05:58:43;;;;;;;6.22;2.40;;;13.70;99.90;;;;;;5069708;28;20067;-63
2022/05/18 06:01:12;;;;;;;4.65;2.33;;;13.80;99.90;;;;;;5069661;28;20032;-63
2022/05/18 06:03:38;;;;;;;3.75;2.42;;;13.90;99.90;;;;;;5069921;28;20048;-63
2022/05/18 06:06:04;;;;;;;5.13;2.45;;;14.00;99.90;;;;;;5069591;28;20031;-62
2022/05/18 06:08:31;;;;;;;3.80;2.25;;;14.10;99.90;;;;;;5069634;28;20465;-63
2022/05/18 06:10:59;;;;;;;4.03;2.00;;;14.30;99.90;;;;;;5068036;28;20044;-63
2022/05/18 06:13:25;;;;;;;2.97;2.03;;;14.40;99.90;;;;;;5066435;28;20222;-63
2022/05/18 06:15:51;;;;;;;3.22;2.22;;;14.60;99.90;;;;;;5048794;28;20021;-63
2022/05/18 06:18:16;;;;;;;3.20;1.90;;;14.60;99.90;;;;;;5069028;28;20025;-63
2022/05/18 06:20:44;;;;;;;6.60;2.50;;;14.70;99.90;;;;;;5069246;28;20334;-63
2022/05/18 06:23:11;;;;;;;3.10;1.73;;;14.70;99.90;;;;;;5068603;28;20028;-62
2022/05/18 06:25:37;;;;;;;5.43;2.25;;;14.90;99.90;;;;;;5063288;28;20024;-62
2022/05/18 06:28:05;;;;;;;4.57;2.45;;;14.90;99.90;;;;;;5066481;28;20024;-64
2022/05/18 06:30:30;;;;;;;3.58;1.95;;;15.00;99.90;;;;;;5069134;28;20040;-62
2022/05/18 06:32:56;;;;;;;2.63;1.55;;;15.20;99.90;;;;;;5069441;28;20389;-62
2022/05/18 06:35:22;;;;;;;2.38;1.42;;;15.40;99.90;;;;;;5069341;28;20110;-62
2022/05/18 06:37:51;;;;;;;5.63;1.70;;;15.50;99.90;;;;;;5069384;28;20425;-64
2022/05/18 06:40:17;;;;;;;3.80;1.60;;;15.60;99.90;;;;;;5050871;28;20405;-64
2022/05/18 06:42:44;;;;;;;2.85;1.38;;;15.70;99.90;;;;;;5069295;28;20028;-62
2022/05/18 06:45:11;;;;;;;1.42;1.20;;;15.90;99.90;;;;;;5069055;28;20557;-62
2022/05/18 06:47:37;;;;;;;2.05;1.25;;;16.10;99.90;;;;;;5051256;28;20025;-62
2022/05/18 06:50:05;;;;;;;2.72;1.65;;;16.40;99.90;;;;;;5069023;28;20103;-63
2022/05/18 06:52:30;;;;;;;2.33;1.30;;;16.40;99.90;;;;;;5068903;28;20052;-62
2022/05/18 06:54:56;;;;;;;2.85;1.58;;;16.80;99.90;;;;;;5069167;28;20027;-62
2022/05/18 06:57:21;;;;;;;2.92;1.58;;;17.10;99.90;;;;;;5065514;28;20043;-62
2022/05/18 06:59:48;;;;;;;2.67;1.55;;;17.40;99.90;;;;;;5068857;28;20097;-62
2022/05/18 07:02:13;;;;;;;2.58;1.63;;;17.40;99.90;;;;;;5070343;28;20152;-63
2022/05/18 07:04:39;;;;;;;4.13;1.30;;;17.40;99.90;;;;;;5068981;28;20440;-63
2022/05/18 07:07:04;;;;;;;6.53;1.50;;;17.30;99.90;;;;;;5070164;28;20025;-64
2022/05/18 07:09:30;;;;;;;1.88;1.65;;;17.20;99.90;;;;;;5072726;28;20037;-62
2022/05/18 07:11:56;;;;;;;4.32;1.27;;;17.10;99.90;;;;;;5072335;28;20068;-62
2022/05/18 07:14:26;;;;;;;2.60;1.20;;;17.20;99.90;;;;;;5072445;28;20024;-63
2022/05/18 07:16:52;;;;;;;3.25;0.98;;;17.60;99.90;;;;;;5072580;28;20082;-63
2022/05/18 07:19:18;;;;;;;2.00;0.98;;;17.70;99.90;;;;;;5072405;28;20053;-63
2022/05/18 07:21:45;;;;;;;1.20;1.10;;;17.70;99.90;;;;;;5072349;28;20036;-62
2022/05/18 07:24:10;;;;;;;1.17;0.88;;;17.90;99.90;;;;;;5072562;28;20024;-63
2022/05/18 07:26:37;;;;;;;3.22;1.15;;;18.00;99.90;;;;;;5072178;28;20074;-63
2022/05/18 07:29:05;;;;;;;4.00;1.40;;;18.00;99.90;;;;;;5072108;28;20024;-59
2022/05/18 07:32:08;;;;;;;3.25;1.60;;;17.90;99.90;;;;;;5072283;28;20032;-62
2022/05/18 07:34:16;;;;;;;3.25;1.20;;;18.00;99.90;;;;;;5072261;28;20028;-60
2022/05/18 07:36:42;;;;;;;2.40;0.95;;;18.60;99.90;;;;;;5072096;28;20511;-61
2022/05/18 07:39:08;;;;;;;3.10;1.00;;;19.20;99.90;;;;;;5072409;28;20066;-62
2022/05/18 07:41:33;;;;;;;2.25;1.52;;;19.70;99.90;;;;;;5071663;28;20417;-62
2022/05/18 07:43:59;;;;;;;1.85;1.20;;;20.50;99.90;;;;;;5071929;28;20020;-62
2022/05/18 07:46:24;;;;;;;3.50;1.27;;;21.10;99.90;;;;;;5071904;28;20021;-63
2022/05/18 07:48:50;;;;;;;3.00;1.17;;;21.60;99.90;;;;;;5071923;28;20127;-62
2022/05/18 07:51:16;;;;;;;3.63;0.95;;;21.30;99.20;;;;;;5071699;28;20129;-61
2022/05/18 07:53:42;;;;;;;1.58;0.80;;;21.50;99.90;;;;;;5071978;28;20109;-62
2022/05/18 07:56:09;;;;;;;1.77;0.90;;;21.30;99.80;;;;;;5071648;28;20706;-63
2022/05/18 07:58:34;;;;;;;4.22;1.00;;;21.90;98.90;;;;;;5071997;28;20025;-63
2022/05/18 08:01:00;;;;;;;2.13;0.80;;;22.60;98.10;;;;;;5071550;28;20378;-62
2022/05/18 08:03:26;;;;;;;1.75;0.90;;;22.70;97.30;;;;;;5072011;28;20063;-62
2022/05/18 08:05:52;;;;;;;1.90;0.90;;;23.10;96.70;;;;;;5071560;28;20108;-63
2022/05/18 08:08:19;;;;;;;1.90;1.00;;;23.50;96.00;;;;;;5067301;28;20032;-61
2022/05/18 08:16:15;;;;;;;4.00;2.55;;;22.70;95.70;;;;;;5071824;28;20056;-60
2022/05/18 08:18:41;;;;;;;1.55;1.00;;;23.10;96.10;;;;;;5071580;28;20157;-61
2022/05/18 08:21:07;;;;;;;2.00;0.80;;;23.50;95.00;;;;;;5068233;28;20075;-61
2022/05/18 08:23:33;;;;;;;5.88;1.17;;;23.90;94.70;;;;;;5053750;28;20033;-61
2022/05/18 08:25:59;;;;;;;2.40;0.88;;;23.80;94.30;;;;;;5071353;28;20025;-61
2022/05/18 08:28:25;;;;;;;4.88;1.10;;;23.80;94.30;;;;;;5071374;28;20060;-61
2022/05/18 08:30:51;;;;;;;8.68;1.08;;;24.20;94.20;;;;;;5056808;28;20068;-60
2022/05/18 08:33:17;;;;;;;1.90;0.90;;;24.60;92.90;;;;;;5051464;28;20036;-60
2022/05/18 08:35:46;;;;;;;2.83;0.80;;;24.10;92.50;;;;;;5050779;28;20024;-60
2022/05/18 08:38:14;;;;;;;5.10;1.33;;;23.70;93.40;;;;;;5050930;28;20115;-60
2022/05/18 08:40:53;;;;;;;2.83;1.00;;;24.70;92.60;;;;;;5051820;28;20025;-61
2022/05/18 08:43:29;;;;;;;2.13;0.85;;;24.90;91.80;;;;;;5071002;28;20031;-60
2022/05/18 08:46:23;;;;;;;2.47;0.95;;;25.70;91.30;;;;;;5070931;28;20138;-61
2022/05/18 08:49:47;;;;;;;2.58;0.77;;;25.70;89.80;;;;;;5062669;28;20072;-60
2022/05/18 08:52:13;;;;;;;3.47;0.88;;;25.80;88.80;;;;;;5034881;28;20041;-61
2022/05/18 08:55:03;;;;;;;2.10;0.85;;;25.30;88.00;;;;;;5071174;28;20046;-60
2022/05/18 08:57:35;;;;;;;1.75;0.73;;;25.00;89.60;;;;;;5070916;28;20024;-61
2022/05/18 09:00:13;;;;;;;2.58;0.82;;;25.30;88.70;;;;;;5070783;28;20067;-61
2022/05/18 09:02:41;;;;;;;2.58;0.70;;;26.50;87.30;;;;;;5070639;28;20180;-61
2022/05/18 09:05:22;;;;;;;2.38;0.80;;;27.20;83.90;;;;;;5070549;28;20075;-61
2022/05/18 09:07:53;;;;;;;;;;;26.70;79.40;;;;;;5071012;28;20025;-61
2022/05/18 09:10:45;;;;;;;3.08;0.60;;;28.00;78.80;;;;;;5070501;28;19910;-61
2022/05/18 09:13:12;;;;;;;0.93;0.50;;;28.20;74.80;;;;;;5043846;28;20037;-61
2022/05/18 09:16:10;;;;;;;1.90;0.50;;;28.70;71.00;;;;;;5050883;28;20028;-61
2022/05/18 09:18:52;;;;;;;2.63;1.15;;;27.90;69.70;;;;;;5050708;28;20032;-61
2022/05/18 09:21:53;;;;;;;3.80;0.88;;;27.80;75.20;;;;;;5050624;28;20037;-61
2022/05/18 09:24:35;;;;;;;3.50;0.82;;;28.20;73.40;;;;;;5047682;28;20031;-62
2022/05/18 09:27:40;;;;;;;2.33;0.90;;;26.90;73.40;;;;;;5047331;28;20025;-62
2022/05/18 09:30:24;;;;;;;2.42;0.93;;;26.80;72.10;;;;;;5050374;28;20040;-61
2022/05/18 09:33:11;;;;;;;1.58;0.70;;;27.80;74.00;;;;;;5050506;28;20035;-61
2022/05/18 09:35:56;;;;;;;3.78;1.00;;;27.50;69.00;;;;;;5050205;28;20436;-61
2022/05/18 09:38:59;;;;;;;4.38;1.05;;;27.40;69.30;;;;;;5049696;28;20041;-61
2022/05/18 09:41:31;;;;;;;3.42;0.77;;;28.70;69.10;;;;;;5056899;28;20158;-62
2022/05/18 09:44:17;;;;;;;2.20;0.75;;;30.20;65.20;;;;;;5070204;28;20024;-62
2022/05/18 09:46:44;;;;;;;2.28;0.90;;;31.30;57.10;;;;;;5070409;28;20456;-62
2022/05/18 09:49:26;;;;;;;2.47;0.65;;;32.40;54.90;;;;;;5070229;28;20032;-62
2022/05/18 09:51:54;;;;;;;3.92;1.65;;;32.60;51.90;;;;;;5069762;28;20048;-62
2022/05/18 09:54:20;;;;;;;3.92;0.68;;;32.90;50.70;;;;;;5070149;28;20025;-62
2022/05/18 09:57:05;;;;;;;2.88;0.98;;;32.50;49.50;;;;;;5069715;28;20031;-62
2022/05/18 09:59:37;;;;;;;3.42;1.10;;;30.40;50.00;;;;;;5057820;28;20033;-62
2022/05/18 10:07:51;;;;;;;1.75;0.68;;;32.00;50.00;;;;;;5066639;28;20031;-62
2022/05/18 10:10:19;;;;;;;3.55;0.73;;;31.70;43.50;;;;;;5065446;28;20116;-62
2022/05/18 10:12:48;;;;;;;2.78;0.57;;;31.10;45.00;;;;;;5068037;28;20024;-63
2022/05/18 10:15:35;;;;;;;1.67;1.00;;;31.80;45.40;;;;;;5069106;28;20028;-63
2022/05/18 10:18:23;;;;;;;3.92;1.00;;;31.60;45.40;;;;;;5049342;28;20059;-62
2022/05/18 10:21:18;;;;;;;3.20;0.93;;;33.10;45.20;;;;;;5049600;28;20025;-62
2022/05/18 10:24:08;;;;;;;1.20;0.70;;;34.80;39.50;;;;;;5055657;28;20028;-62
2022/05/18 10:26:41;;;;;;;4.30;0.98;;;36.10;35.40;;;;;;5066163;28;20032;-63
2022/05/18 10:29:27;;;;;;;1.30;0.63;;;34.40;34.00;;;;;;5055944;28;20029;-63
2022/05/18 10:32:08;;;;;;;3.33;0.82;;;35.60;33.50;;;;;;5066402;28;20040;-63
2022/05/18 10:34:50;;;;;;;1.83;0.60;;;36.20;31.70;;;;;;5069613;28;20016;-68
2022/05/18 10:37:35;;;;;;;2.25;0.77;;;37.10;28.60;;;;;;5053527;28;20033;-63
2022/05/18 10:40:19;;;;;;;2.30;0.73;;;35.70;28.60;;;;;;5053309;28;20100;-63
2022/05/18 10:42:53;;;;;;;1.83;0.50;;;37.60;27.10;;;;;;5070845;28;20033;-63
2022/05/18 10:45:39;;;;;;;2.97;0.55;;;36.70;22.00;;;;;;5069970;28;20123;-63
2022/05/18 10:48:17;;;;;;;4.13;0.90;;;35.00;27.10;;;;;;5052569;28;20029;-63
2022/05/18 10:50:45;;;;;;;3.17;0.93;;;36.90;25.10;;;;;;5053221;28;20562;-63
2022/05/18 10:53:13;;;;;;;2.95;0.60;;;38.00;25.30;;;;;;5053167;28;20493;-63
2022/05/18 10:55:57;;;;;;;1.00;0.50;;;38.40;22.00;;;;;;5053164;28;20079;-63
2022/05/18 10:58:28;;;;;;;1.35;0.60;;;38.00;20.80;;;;;;5050868;28;20041;-63
2022/05/18 11:00:56;;;;;;;1.33;0.60;;;37.80;20.60;;;;;;5050035;28;20486;-63
2022/05/18 11:03:31;;;;;;;2.75;0.73;;;37.80;19.60;;;;;;5050892;28;20032;-63
2022/05/18 11:06:11;;;;;;;2.08;0.80;;;38.30;19.10;;;;;;5032941;28;20493;-63
2022/05/18 11:08:36;;;;;;;2.63;0.40;;;37.80;19.90;;;;;;5049905;28;20056;-62
2022/05/18 11:11:35;;;;;;;2.33;0.70;;;38.50;18.30;;;;;;5055840;28;20076;-63
2022/05/18 11:14:29;;;;;;;3.00;1.17;;;35.70;19.30;;;;;;5072627;28;20461;-64
2022/05/18 11:17:04;;;;;;;1.77;0.60;;;36.50;21.30;;;;;;5072760;28;20078;-64
2022/05/18 11:20:06;;;;;;;1.58;0.30;;;37.40;20.00;;;;;;5072604;28;20017;-63
2022/05/18 11:22:55;;;;;;;1.38;0.60;;;38.10;18.60;;;;;;5072505;28;20025;-62
2022/05/18 11:25:36;;;;;;;1.85;0.63;;;38.60;19.70;;;;;;5039189;28;20036;-62
2022/05/18 11:28:10;;;;;;;0.63;0.60;;;38.10;18.40;;;;;;5069620;28;20021;-63
2022/05/18 11:30:50;;;;;;;2.33;0.45;;;36.90;17.90;;;;;;5069327;28;20046;-63
2022/05/18 11:33:42;;;;;;;1.65;0.70;;;37.50;19.20;;;;;;5069336;28;20516;-63
2022/05/18 11:36:53;;;;;;;2.55;0.85;;;36.70;18.70;;;;;;5071953;28;20036;-63
2022/05/18 11:39:25;;;;;;;2.58;0.98;;;35.80;20.00;;;;;;5069939;28;20024;-65
2022/05/18 11:42:17;;;;;;;3.10;0.73;;;36.40;21.10;;;;;;5068697;28;20029;-64
2022/05/18 11:44:58;;;;;;;2.08;0.85;;;35.70;20.10;;;;;;5061192;28;20033;-64
2022/05/18 11:47:57;;;;;;;3.17;0.90;;;36.00;21.00;;;;;;5068867;28;20033;-67
2022/05/18 11:50:32;;;;;;;6.10;1.02;;;35.40;21.30;;;;;;5068867;28;20021;-65
2022/05/18 11:52:58;;;;;;;3.20;1.25;;;35.90;20.80;;;;;;5068807;28;20048;-64
2022/05/18 11:55:45;;;;;;;1.73;0.80;;;31.70;21.40;;;;;;5069063;28;20024;-64
2022/05/18 11:58:49;;;;;;;1.45;0.57;;;32.40;24.00;;;;;;5068588;28;20024;-63
2022/05/18 12:01:51;;;;;;;4.00;0.65;;;33.20;23.00;;;;;;5068400;28;20075;-63
2022/05/18 12:04:45;;;;;;;1.48;0.47;;;33.70;22.90;;;;;;5044119;28;20099;-65
2022/05/18 12:07:19;;;;;;;3.80;0.82;;;34.30;23.40;;;;;;5068710;28;20032;-64
2022/05/18 12:09:51;;;;;;;4.20;0.68;;;35.30;21.80;;;;;;5068734;28;20107;-64
2022/05/18 12:12:23;;;;;;;3.08;0.80;;;34.90;22.10;;;;;;5067996;28;20547;-64
2022/05/18 12:14:57;;;;;;;4.15;0.85;;;34.10;22.00;;;;;;5068644;28;20060;-64
2022/05/18 12:17:38;;;;;;;1.77;0.68;;;32.20;23.00;;;;;;5068395;28;20425;-64
2022/05/18 12:20:24;;;;;;;3.63;0.90;;;32.00;24.10;;;;;;5068189;28;20497;-64
2022/05/18 12:22:57;;;;;;;1.70;1.30;;;29.00;22.90;;;;;;5068241;28;20463;-63
2022/05/18 12:25:25;;;;;;;2.28;0.40;;;29.00;26.10;;;;;;5068366;28;20028;-64
2022/05/18 12:27:56;;;;;;;1.77;0.50;;;28.00;24.60;;;;;;5055809;28;20389;-62
2022/05/18 12:30:22;;;;;;;;;;;27.90;27.00;;;;;;5048629;28;20043;-62
2022/05/18 12:32:49;;;;;;;8.65;4.15;;;28.60;29.60;;;;;;5048080;28;19927;-62
2022/05/18 12:35:25;;;;;;;2.50;0.32;;;29.80;27.70;;;;;;5048083;28;20028;-62
2022/05/18 12:38:08;;;;;;;1.63;0.50;;;28.40;24.30;;;;;;5050746;28;20110;-62
2022/05/18 12:40:43;;;;;;;0.93;0.30;;;29.40;27.30;;;;;;5048436;28;20036;-62
2022/05/18 12:43:18;;;;;;;1.38;0.60;;;30.30;25.60;;;;;;5047812;28;20405;-62
2022/05/18 12:45:47;;;;;;;0.90;0.40;;;30.50;23.00;;;;;;5047997;28;20029;-62
2022/05/18 12:48:20;;;;;;;2.55;0.70;;;29.50;20.80;;;;;;5048198;28;20481;-62
2022/05/18 12:51:00;;;;;;;1.20;0.38;;;29.70;21.10;;;;;;5048010;28;20063;-62
2022/05/18 12:53:31;;;;;;;0.63;0.38;;;29.30;21.40;;;;;;5048080;28;20082;-62
2022/05/18 12:56:08;;;;;;;1.25;0.40;;;30.50;19.30;;;;;;5047335;28;20044;-63
2022/05/18 12:58:43;;;;;;;4.28;1.17;;;28.70;19.80;;;;;;5047259;28;20044;-61
2022/05/18 13:01:16;;;;;;;2.90;0.98;;;29.10;21.30;;;;;;5047670;28;20493;-62
2022/05/18 13:03:57;;;;;;;0.73;0.30;;;28.20;21.80;;;;;;5047077;28;20033;-62
2022/05/18 13:06:35;;;;;;;2.05;0.70;;;28.50;22.20;;;;;;5046696;28;20100;-62
2022/05/18 13:09:04;;;;;;;3.75;0.57;;;29.50;21.60;;;;;;5047439;28;20056;-62
2022/05/18 13:11:44;;;;;;;4.77;0.50;;;29.90;22.90;;;;;;5054722;28;20036;-62
2022/05/18 13:14:22;;;;;;;;;;;30.10;22.20;;;;;;5067708;28;20460;-62
2022/05/18 13:16:48;;;;;;;1.05;0.65;;;30.30;21.80;;;;;;5066884;28;20018;-62
2022/05/18 13:19:14;;;;;;;2.83;0.50;;;30.30;22.80;;;;;;5067052;28;20107;-62
2022/05/18 13:22:07;;;;;;;1.67;0.55;;;29.70;22.80;;;;;;5066652;28;20029;-62
2022/05/18 13:24:44;;;;;;;1.08;0.52;;;28.80;24.40;;;;;;5066831;28;20028;-62
2022/05/18 13:27:50;;;;;;;0.70;0.50;;;27.60;26.40;;;;;;5066881;28;20107;-62